Date,TemperatureHighF,TemperatureAvgF,TemperatureLowF,DewpointHighF,DewpointAvgF,DewpointLowF,HumidityHigh,HumidityAvg,HumidityLow,PressureMaxIn,PressureMinIn,WindSpeedMaxMPH,WindSpeedAvgMPH,GustSpeedMaxMPH,PrecipitationSumIn
2013-3-1,36,33,30,31,28,24,94,85,65,29.91,29.31,0,0,0,0.05
2013-3-2,38,31,24,31,27,23,100,87,72,30.06,29.92,0,0,0,0.11
2013-3-3,41,35,29,34,30,27,92,84,72,30.42,30.05,0,0,0,0.00
2013-3-4,39,35,33,36,33,31,94,90,83,30.46,30.30,0,0,0,0.00
2013-3-5,40,34,30,34,31,26,95,87,75,30.30,29.99,0,0,0,0.00
2013-3-6,38,34,31,34,31,28,95,91,85,29.98,29.84,0,0,0,0.08
2013-3-7,41,36,32,34,31,25,94,82,53,29.85,29.58,0,0,0,0.54
2013-3-8,40,34,32,35,32,30,96,93,80,29.78,29.59,0,0,0,0.28
2013-3-9,36,33,31,34,32,30,95,93,88,30.09,29.79,0,0,0,0.39
2013-3-10,34,32,30,32,30,29,95,93,90,30.11,30.05,0,0,0,0.13
2013-3-11,32,32,32,30,30,30,92,92,92,30.08,30.08,0,0,0,0.00
2013-3-14,20,19,18,18,16,16,92,90,89,29.77,29.76,0,0,0,0.12
2013-3-15,38,22,14,25,16,11,90,78,48,29.79,29.66,0,0,0,0.30
2013-3-16,38,22,11,18,12,7,87,67,34,30.01,29.80,0,0,0,0.07
2013-3-17,33,29,24,14,10,7,66,44,39,30.04,29.98,5,0,5,0.00
2013-3-18,31,25,16,11,9,7,69,52,42,29.98,29.80,4,0,3,0.00
2013-3-19,26,24,22,9,5,0,54,43,35,29.82,29.76,12,0,12,0.00
2013-3-20,26,22,17,3,0,-3,43,38,31,29.90,29.75,10,0,10,0.00
2013-3-21,32,25,18,11,5,1,51,41,30,30.17,29.90,0,0,0,0.00
2013-3-22,33,30,25,31,28,23,100,93,91,30.04,29.83,3,0,3,0.06
2013-3-23,40,35,32,34,31,29,94,88,73,29.83,29.76,4,0,4,0.72
2013-3-24,34,30,26,30,27,23,94,88,79,29.78,29.46,0,0,0,0.06
2013-3-25,28,23,15,24,15,5,88,74,61,29.59,29.29,12,0,12,0.00
2013-3-26,22,16,11,5,3,0,65,55,41,30.12,29.59,7,0,7,0.00
2013-3-27,33,17,1,17,6,-4,79,64,42,30.21,30.12,0,0,0,0.01
2013-3-28,34,28,23,28,23,15,95,80,68,30.21,29.93,0,0,0,0.07
2013-3-29,40,35,30,34,31,28,94,86,63,29.93,29.82,0,0,0,0.45
2013-3-30,41,35,30,35,32,28,94,88,75,30.23,29.93,0,0,0,0.06
2013-3-31,45,36,31,35,32,29,96,86,66,30.24,30.06,0,0,0,0.01